sensor_id;sensor_type;location;lat;lon;timestamp;P1;durP1;ratioP1;P2;durP2;ratioP2
63189;SDS011;49286;44.460;26.114;2022-10-16T00:00:44;34.72;;;21.50;;
63189;SDS011;49286;44.460;26.114;2022-10-16T00:03:11;36.45;;;19.15;;
63189;SDS011;49286;44.460;26.114;2022-10-16T00:05:41;25.52;;;19.30;;
63189;SDS011;49286;44.460;26.114;2022-10-16T00:08:08;39.70;;;21.23;;
63189;SDS011;49286;44.460;26.114;2022-10-16T00:10:34;29.45;;;20.67;;
63189;SDS011;49286;44.460;26.114;2022-10-16T00:13:00;32.22;;;21.45;;
63189;SDS011;49286;44.460;26.114;2022-10-16T00:15:26;40.75;;;23.90;;
63189;SDS011;49286;44.460;26.114;2022-10-16T00:17:52;27.67;;;18.70;;
63189;SDS011;49286;44.460;26.114;2022-10-16T00:20:17;32.00;;;20.13;;
63189;SDS011;49286;44.460;26.114;2022-10-16T00:22:42;39.78;;;21.42;;
63189;SDS011;49286;44.460;26.114;2022-10-16T00:25:08;29.90;;;21.08;;
63189;SDS011;49286;44.460;26.114;2022-10-16T00:27:34;29.73;;;20.05;;
63189;SDS011;49286;44.460;26.114;2022-10-16T00:29:59;28.50;;;21.27;;
63189;SDS011;49286;44.460;26.114;2022-10-16T00:32:25;35.10;;;21.38;;
63189;SDS011;49286;44.460;26.114;2022-10-16T00:34:50;31.40;;;19.70;;
63189;SDS011;49286;44.460;26.114;2022-10-16T00:37:16;33.25;;;21.02;;
63189;SDS011;49286;44.460;26.114;2022-10-16T00:39:41;29.10;;;21.23;;
63189;SDS011;49286;44.460;26.114;2022-10-16T00:42:09;36.38;;;23.77;;
63189;SDS011;49286;44.460;26.114;2022-10-16T00:44:44;39.50;;;21.70;;
63189;SDS011;49286;44.460;26.114;2022-10-16T00:47:13;35.47;;;21.98;;
63189;SDS011;49286;44.460;26.114;2022-10-16T00:49:44;42.58;;;23.75;;
63189;SDS011;49286;44.460;26.114;2022-10-16T00:52:11;33.60;;;23.88;;
63189;SDS011;49286;44.460;26.114;2022-10-16T00:54:38;38.33;;;21.58;;
63189;SDS011;49286;44.460;26.114;2022-10-16T00:57:04;32.75;;;23.13;;
63189;SDS011;49286;44.460;26.114;2022-10-16T00:59:38;29.90;;;20.35;;
63189;SDS011;49286;44.460;26.114;2022-10-16T01:02:07;35.53;;;24.55;;
63189;SDS011;49286;44.460;26.114;2022-10-16T01:04:35;46.10;;;22.23;;
63189;SDS011;49286;44.460;26.114;2022-10-16T01:07:07;31.42;;;21.35;;
63189;SDS011;49286;44.460;26.114;2022-10-16T01:09:55;25.60;;;21.17;;
63189;SDS011;49286;44.460;26.114;2022-10-16T01:17:55;34.35;;;21.23;;
63189;SDS011;49286;44.460;26.114;2022-10-16T01:20:32;26.05;;;19.27;;
63189;SDS011;49286;44.460;26.114;2022-10-16T01:29:01;27.83;;;19.63;;
63189;SDS011;49286;44.460;26.114;2022-10-16T01:31:34;29.50;;;21.88;;
63189;SDS011;49286;44.460;26.114;2022-10-16T01:34:04;31.48;;;21.00;;
63189;SDS011;49286;44.460;26.114;2022-10-16T01:36:35;32.67;;;23.55;;
63189;SDS011;49286;44.460;26.114;2022-10-16T01:39:06;28.77;;;20.90;;
63189;SDS011;49286;44.460;26.114;2022-10-16T01:41:43;30.65;;;20.58;;
63189;SDS011;49286;44.460;26.114;2022-10-16T01:44:19;29.77;;;20.23;;
63189;SDS011;49286;44.460;26.114;2022-10-16T01:46:49;29.60;;;20.73;;
63189;SDS011;49286;44.460;26.114;2022-10-16T01:49:17;29.67;;;20.42;;
63189;SDS011;49286;44.460;26.114;2022-10-16T01:51:44;31.33;;;19.77;;
63189;SDS011;49286;44.460;26.114;2022-10-16T01:54:13;29.63;;;19.15;;
63189;SDS011;49286;44.460;26.114;2022-10-16T01:56:40;26.77;;;17.17;;
63189;SDS011;49286;44.460;26.114;2022-10-16T01:59:09;33.92;;;19.10;;
63189;SDS011;49286;44.460;26.114;2022-10-16T02:01:39;34.28;;;19.25;;
63189;SDS011;49286;44.460;26.114;2022-10-16T02:06:48;27.50;;;19.10;;
63189;SDS011;49286;44.460;26.114;2022-10-16T02:09:13;29.85;;;17.73;;
63189;SDS011;49286;44.460;26.114;2022-10-16T02:11:41;33.05;;;18.13;;
63189;SDS011;49286;44.460;26.114;2022-10-16T02:14:07;26.17;;;18.17;;
63189;SDS011;49286;44.460;26.114;2022-10-16T02:16:38;28.73;;;17.60;;
63189;SDS011;49286;44.460;26.114;2022-10-16T02:19:05;30.13;;;19.23;;
63189;SDS011;49286;44.460;26.114;2022-10-16T02:21:43;24.67;;;17.50;;
63189;SDS011;49286;44.460;26.114;2022-10-16T02:24:12;29.38;;;20.17;;
63189;SDS011;49286;44.460;26.114;2022-10-16T02:27:12;23.70;;;18.75;;
63189;SDS011;49286;44.460;26.114;2022-10-16T02:29:53;28.33;;;15.45;;
63189;SDS011;49286;44.460;26.114;2022-10-16T02:32:41;34.25;;;18.83;;
63189;SDS011;49286;44.460;26.114;2022-10-16T02:35:09;35.63;;;17.65;;
63189;SDS011;49286;44.460;26.114;2022-10-16T02:37:36;25.60;;;17.20;;
63189;SDS011;49286;44.460;26.114;2022-10-16T02:40:03;24.50;;;16.52;;
63189;SDS011;49286;44.460;26.114;2022-10-16T02:42:34;45.53;;;18.92;;
63189;SDS011;49286;44.460;26.114;2022-10-16T02:45:01;24.83;;;18.60;;
63189;SDS011;49286;44.460;26.114;2022-10-16T02:47:27;23.95;;;16.75;;
63189;SDS011;49286;44.460;26.114;2022-10-16T02:49:53;24.55;;;15.82;;
63189;SDS011;49286;44.460;26.114;2022-10-16T02:52:18;24.00;;;15.20;;
63189;SDS011;49286;44.460;26.114;2022-10-16T02:54:43;23.25;;;18.48;;
63189;SDS011;49286;44.460;26.114;2022-10-16T02:57:16;31.95;;;20.08;;
63189;SDS011;49286;44.460;26.114;2022-10-16T02:59:41;22.43;;;16.23;;
63189;SDS011;49286;44.460;26.114;2022-10-16T03:02:07;27.08;;;15.75;;
63189;SDS011;49286;44.460;26.114;2022-10-16T03:04:32;22.17;;;14.88;;
63189;SDS011;49286;44.460;26.114;2022-10-16T03:06:58;22.52;;;17.15;;
63189;SDS011;49286;44.460;26.114;2022-10-16T03:09:23;24.63;;;14.35;;
63189;SDS011;49286;44.460;26.114;2022-10-16T03:11:49;18.67;;;15.45;;
63189;SDS011;49286;44.460;26.114;2022-10-16T03:14:14;26.98;;;17.25;;
63189;SDS011;49286;44.460;26.114;2022-10-16T03:16:40;28.63;;;15.88;;
63189;SDS011;49286;44.460;26.114;2022-10-16T03:19:05;29.75;;;17.65;;
63189;SDS011;49286;44.460;26.114;2022-10-16T03:21:31;30.92;;;16.13;;
63189;SDS011;49286;44.460;26.114;2022-10-16T03:23:56;25.25;;;16.20;;
63189;SDS011;49286;44.460;26.114;2022-10-16T03:26:22;26.98;;;16.80;;
63189;SDS011;49286;44.460;26.114;2022-10-16T03:28:47;32.63;;;19.90;;
63189;SDS011;49286;44.460;26.114;2022-10-16T03:31:13;28.95;;;20.35;;
63189;SDS011;49286;44.460;26.114;2022-10-16T03:33:38;29.83;;;21.67;;
63189;SDS011;49286;44.460;26.114;2022-10-16T03:36:03;29.80;;;24.80;;
63189;SDS011;49286;44.460;26.114;2022-10-16T03:38:29;37.92;;;24.08;;
63189;SDS011;49286;44.460;26.114;2022-10-16T03:40:54;32.63;;;20.80;;
63189;SDS011;49286;44.460;26.114;2022-10-16T03:43:20;35.22;;;22.42;;
63189;SDS011;49286;44.460;26.114;2022-10-16T03:45:45;27.58;;;20.67;;
63189;SDS011;49286;44.460;26.114;2022-10-16T03:48:11;26.73;;;20.30;;
63189;SDS011;49286;44.460;26.114;2022-10-16T03:50:36;35.25;;;17.15;;
63189;SDS011;49286;44.460;26.114;2022-10-16T03:53:02;35.58;;;18.73;;
63189;SDS011;49286;44.460;26.114;2022-10-16T03:55:28;32.22;;;18.25;;
63189;SDS011;49286;44.460;26.114;2022-10-16T03:57:53;27.60;;;19.23;;
63189;SDS011;49286;44.460;26.114;2022-10-16T04:00:19;25.58;;;17.58;;
63189;SDS011;49286;44.460;26.114;2022-10-16T04:02:44;26.02;;;15.50;;
63189;SDS011;49286;44.460;26.114;2022-10-16T04:05:10;33.80;;;16.05;;
63189;SDS011;49286;44.460;26.114;2022-10-16T04:07:35;32.45;;;15.70;;
63189;SDS011;49286;44.460;26.114;2022-10-16T04:10:01;27.02;;;13.65;;
63189;SDS011;49286;44.460;26.114;2022-10-16T04:12:27;23.85;;;15.32;;
63189;SDS011;49286;44.460;26.114;2022-10-16T04:14:52;18.80;;;13.90;;
63189;SDS011;49286;44.460;26.114;2022-10-16T04:17:17;23.73;;;14.00;;
63189;SDS011;49286;44.460;26.114;2022-10-16T04:19:43;27.42;;;15.57;;
63189;SDS011;49286;44.460;26.114;2022-10-16T04:22:09;24.15;;;14.45;;
63189;SDS011;49286;44.460;26.114;2022-10-16T04:24:34;27.40;;;17.17;;
63189;SDS011;49286;44.460;26.114;2022-10-16T04:27:00;23.88;;;15.70;;
63189;SDS011;49286;44.460;26.114;2022-10-16T04:29:25;25.17;;;14.18;;
63189;SDS011;49286;44.460;26.114;2022-10-16T04:31:51;21.08;;;13.55;;
63189;SDS011;49286;44.460;26.114;2022-10-16T04:34:16;16.02;;;10.27;;
63189;SDS011;49286;44.460;26.114;2022-10-16T04:36:42;20.92;;;12.40;;
63189;SDS011;49286;44.460;26.114;2022-10-16T04:39:07;20.75;;;14.18;;
63189;SDS011;49286;44.460;26.114;2022-10-16T04:41:32;23.90;;;12.00;;
63189;SDS011;49286;44.460;26.114;2022-10-16T04:43:58;17.40;;;11.68;;
63189;SDS011;49286;44.460;26.114;2022-10-16T04:46:23;19.65;;;12.23;;
63189;SDS011;49286;44.460;26.114;2022-10-16T04:48:49;16.33;;;12.65;;
63189;SDS011;49286;44.460;26.114;2022-10-16T04:51:14;22.85;;;12.75;;
63189;SDS011;49286;44.460;26.114;2022-10-16T04:53:40;23.92;;;13.95;;
63189;SDS011;49286;44.460;26.114;2022-10-16T04:56:05;39.35;;;13.88;;
63189;SDS011;49286;44.460;26.114;2022-10-16T04:58:31;17.65;;;11.73;;
63189;SDS011;49286;44.460;26.114;2022-10-16T05:00:57;15.32;;;11.55;;
63189;SDS011;49286;44.460;26.114;2022-10-16T05:03:22;19.77;;;12.10;;
63189;SDS011;49286;44.460;26.114;2022-10-16T05:05:47;18.92;;;11.75;;
63189;SDS011;49286;44.460;26.114;2022-10-16T05:08:13;20.52;;;11.48;;
63189;SDS011;49286;44.460;26.114;2022-10-16T05:10:43;22.42;;;11.32;;
63189;SDS011;49286;44.460;26.114;2022-10-16T05:13:09;14.18;;;11.43;;
63189;SDS011;49286;44.460;26.114;2022-10-16T05:15:35;17.42;;;10.98;;
63189;SDS011;49286;44.460;26.114;2022-10-16T05:18:01;19.08;;;10.73;;
63189;SDS011;49286;44.460;26.114;2022-10-16T05:20:27;13.50;;;10.70;;
63189;SDS011;49286;44.460;26.114;2022-10-16T05:22:52;19.70;;;12.30;;
63189;SDS011;49286;44.460;26.114;2022-10-16T05:25:18;19.33;;;11.25;;
63189;SDS011;49286;44.460;26.114;2022-10-16T05:27:43;17.65;;;11.50;;
63189;SDS011;49286;44.460;26.114;2022-10-16T05:30:12;20.17;;;11.73;;
63189;SDS011;49286;44.460;26.114;2022-10-16T05:32:38;15.00;;;10.65;;
63189;SDS011;49286;44.460;26.114;2022-10-16T05:35:03;27.48;;;12.38;;
63189;SDS011;49286;44.460;26.114;2022-10-16T05:37:29;22.63;;;12.32;;
63189;SDS011;49286;44.460;26.114;2022-10-16T05:39:55;33.53;;;13.25;;
63189;SDS011;49286;44.460;26.114;2022-10-16T05:42:20;23.75;;;13.00;;
63189;SDS011;49286;44.460;26.114;2022-10-16T05:44:59;17.13;;;12.85;;
63189;SDS011;49286;44.460;26.114;2022-10-16T05:47:24;19.95;;;12.20;;
63189;SDS011;49286;44.460;26.114;2022-10-16T05:49:50;28.33;;;11.50;;
63189;SDS011;49286;44.460;26.114;2022-10-16T05:52:15;18.98;;;12.00;;
63189;SDS011;49286;44.460;26.114;2022-10-16T05:54:41;23.10;;;12.52;;
63189;SDS011;49286;44.460;26.114;2022-10-16T05:57:06;19.17;;;11.35;;
63189;SDS011;49286;44.460;26.114;2022-10-16T05:59:32;21.58;;;12.63;;
63189;SDS011;49286;44.460;26.114;2022-10-16T06:01:57;18.65;;;11.55;;
63189;SDS011;49286;44.460;26.114;2022-10-16T06:04:23;16.02;;;11.20;;
63189;SDS011;49286;44.460;26.114;2022-10-16T06:06:48;20.33;;;12.57;;
63189;SDS011;49286;44.460;26.114;2022-10-16T06:09:14;14.95;;;10.50;;
63189;SDS011;49286;44.460;26.114;2022-10-16T06:11:39;17.27;;;11.52;;
63189;SDS011;49286;44.460;26.114;2022-10-16T06:14:05;17.50;;;11.30;;
63189;SDS011;49286;44.460;26.114;2022-10-16T06:16:33;29.95;;;11.43;;
63189;SDS011;49286;44.460;26.114;2022-10-16T06:19:03;18.25;;;11.70;;
63189;SDS011;49286;44.460;26.114;2022-10-16T06:21:31;19.35;;;11.95;;
63189;SDS011;49286;44.460;26.114;2022-10-16T06:23:57;16.95;;;10.98;;
63189;SDS011;49286;44.460;26.114;2022-10-16T06:26:25;25.98;;;12.05;;
63189;SDS011;49286;44.460;26.114;2022-10-16T06:28:53;31.00;;;12.77;;
63189;SDS011;49286;44.460;26.114;2022-10-16T06:31:20;13.63;;;9.43;;
63189;SDS011;49286;44.460;26.114;2022-10-16T06:33:45;31.27;;;11.20;;
63189;SDS011;49286;44.460;26.114;2022-10-16T06:36:16;16.00;;;11.35;;
63189;SDS011;49286;44.460;26.114;2022-10-16T06:38:43;27.58;;;10.15;;
63189;SDS011;49286;44.460;26.114;2022-10-16T06:41:13;18.05;;;10.70;;
63189;SDS011;49286;44.460;26.114;2022-10-16T06:43:40;23.75;;;10.93;;
63189;SDS011;49286;44.460;26.114;2022-10-16T06:46:06;24.00;;;12.05;;
63189;SDS011;49286;44.460;26.114;2022-10-16T06:48:34;16.65;;;11.80;;
63189;SDS011;49286;44.460;26.114;2022-10-16T06:51:04;18.38;;;10.90;;
63189;SDS011;49286;44.460;26.114;2022-10-16T06:53:46;19.92;;;13.40;;
63189;SDS011;49286;44.460;26.114;2022-10-16T06:58:44;25.70;;;12.95;;
63189;SDS011;49286;44.460;26.114;2022-10-16T07:01:11;21.75;;;12.75;;
63189;SDS011;49286;44.460;26.114;2022-10-16T07:03:38;33.83;;;13.38;;
63189;SDS011;49286;44.460;26.114;2022-10-16T07:06:06;20.58;;;10.88;;
63189;SDS011;49286;44.460;26.114;2022-10-16T07:08:32;14.45;;;10.07;;
63189;SDS011;49286;44.460;26.114;2022-10-16T07:11:20;22.30;;;12.90;;
63189;SDS011;49286;44.460;26.114;2022-10-16T07:13:46;22.80;;;14.32;;
63189;SDS011;49286;44.460;26.114;2022-10-16T07:16:14;17.13;;;12.77;;
63189;SDS011;49286;44.460;26.114;2022-10-16T07:18:41;23.13;;;12.55;;
63189;SDS011;49286;44.460;26.114;2022-10-16T07:21:11;17.02;;;13.93;;
63189;SDS011;49286;44.460;26.114;2022-10-16T07:23:44;22.20;;;13.82;;
63189;SDS011;49286;44.460;26.114;2022-10-16T07:26:10;17.08;;;12.63;;
63189;SDS011;49286;44.460;26.114;2022-10-16T07:28:36;25.70;;;12.00;;
63189;SDS011;49286;44.460;26.114;2022-10-16T07:31:03;15.82;;;12.35;;
63189;SDS011;49286;44.460;26.114;2022-10-16T07:33:31;26.77;;;11.95;;
63189;SDS011;49286;44.460;26.114;2022-10-16T07:35:58;20.50;;;12.10;;
63189;SDS011;49286;44.460;26.114;2022-10-16T07:38:23;23.38;;;13.05;;
63189;SDS011;49286;44.460;26.114;2022-10-16T07:40:55;16.85;;;13.25;;
63189;SDS011;49286;44.460;26.114;2022-10-16T07:43:25;23.15;;;13.98;;
63189;SDS011;49286;44.460;26.114;2022-10-16T07:45:51;26.25;;;14.55;;
63189;SDS011;49286;44.460;26.114;2022-10-16T07:48:17;23.20;;;14.48;;
63189;SDS011;49286;44.460;26.114;2022-10-16T07:50:43;19.00;;;14.15;;
63189;SDS011;49286;44.460;26.114;2022-10-16T07:53:09;20.40;;;13.80;;
63189;SDS011;49286;44.460;26.114;2022-10-16T07:55:35;17.10;;;12.50;;
63189;SDS011;49286;44.460;26.114;2022-10-16T07:58:01;24.60;;;14.38;;
63189;SDS011;49286;44.460;26.114;2022-10-16T08:00:27;16.73;;;12.93;;
63189;SDS011;49286;44.460;26.114;2022-10-16T08:02:52;21.92;;;12.00;;
63189;SDS011;49286;44.460;26.114;2022-10-16T08:05:17;23.45;;;13.60;;
63189;SDS011;49286;44.460;26.114;2022-10-16T08:07:47;22.52;;;13.20;;
63189;SDS011;49286;44.460;26.114;2022-10-16T08:10:18;20.90;;;13.75;;
63189;SDS011;49286;44.460;26.114;2022-10-16T08:12:44;17.20;;;11.73;;
63189;SDS011;49286;44.460;26.114;2022-10-16T08:15:09;20.38;;;13.93;;
63189;SDS011;49286;44.460;26.114;2022-10-16T08:17:35;17.90;;;12.18;;
63189;SDS011;49286;44.460;26.114;2022-10-16T08:20:01;24.73;;;12.93;;
63189;SDS011;49286;44.460;26.114;2022-10-16T08:22:26;21.63;;;13.00;;
63189;SDS011;49286;44.460;26.114;2022-10-16T08:24:52;18.33;;;13.07;;
63189;SDS011;49286;44.460;26.114;2022-10-16T08:27:17;20.98;;;14.15;;
63189;SDS011;49286;44.460;26.114;2022-10-16T08:29:43;16.63;;;10.93;;
63189;SDS011;49286;44.460;26.114;2022-10-16T08:32:08;20.48;;;11.18;;
63189;SDS011;49286;44.460;26.114;2022-10-16T08:34:34;16.45;;;10.60;;
63189;SDS011;49286;44.460;26.114;2022-10-16T08:36:59;15.32;;;10.63;;
63189;SDS011;49286;44.460;26.114;2022-10-16T08:39:25;21.25;;;10.80;;
63189;SDS011;49286;44.460;26.114;2022-10-16T08:49:29;18.08;;;11.57;;
63189;SDS011;49286;44.460;26.114;2022-10-16T08:51:55;23.88;;;11.38;;
63189;SDS011;49286;44.460;26.114;2022-10-16T08:56:57;14.32;;;9.55;;
63189;SDS011;49286;44.460;26.114;2022-10-16T08:59:32;19.17;;;9.65;;
63189;SDS011;49286;44.460;26.114;2022-10-16T09:01:57;15.05;;;9.95;;
63189;SDS011;49286;44.460;26.114;2022-10-16T09:07:27;16.67;;;11.80;;
63189;SDS011;49286;44.460;26.114;2022-10-16T09:12:44;14.70;;;10.07;;
63189;SDS011;49286;44.460;26.114;2022-10-16T09:18:03;20.15;;;9.48;;
63189;SDS011;49286;44.460;26.114;2022-10-16T09:25:48;25.38;;;11.00;;
63189;SDS011;49286;44.460;26.114;2022-10-16T09:28:14;17.25;;;10.85;;
63189;SDS011;49286;44.460;26.114;2022-10-16T09:30:41;22.02;;;12.85;;
63189;SDS011;49286;44.460;26.114;2022-10-16T09:33:07;21.20;;;11.45;;
63189;SDS011;49286;44.460;26.114;2022-10-16T09:38:05;14.68;;;13.05;;
63189;SDS011;49286;44.460;26.114;2022-10-16T09:40:35;19.90;;;12.25;;
63189;SDS011;49286;44.460;26.114;2022-10-16T09:43:55;25.00;;;13.88;;
63189;SDS011;49286;44.460;26.114;2022-10-16T09:46:28;35.40;;;16.05;;
63189;SDS011;49286;44.460;26.114;2022-10-16T09:48:59;17.42;;;13.02;;
63189;SDS011;49286;44.460;26.114;2022-10-16T09:51:30;18.02;;;12.70;;
63189;SDS011;49286;44.460;26.114;2022-10-16T09:54:21;18.42;;;14.90;;
63189;SDS011;49286;44.460;26.114;2022-10-16T09:56:46;18.67;;;15.02;;
63189;SDS011;49286;44.460;26.114;2022-10-16T09:59:21;17.23;;;13.52;;
63189;SDS011;49286;44.460;26.114;2022-10-16T10:01:55;36.22;;;16.48;;
63189;SDS011;49286;44.460;26.114;2022-10-16T10:04:22;22.92;;;13.48;;
63189;SDS011;49286;44.460;26.114;2022-10-16T10:06:54;21.20;;;14.50;;
63189;SDS011;49286;44.460;26.114;2022-10-16T10:09:22;19.65;;;13.65;;
63189;SDS011;49286;44.460;26.114;2022-10-16T10:17:10;16.83;;;12.35;;
63189;SDS011;49286;44.460;26.114;2022-10-16T10:20:21;27.30;;;18.63;;
63189;SDS011;49286;44.460;26.114;2022-10-16T10:22:47;20.58;;;15.32;;
63189;SDS011;49286;44.460;26.114;2022-10-16T10:54:20;22.38;;;16.60;;
63189;SDS011;49286;44.460;26.114;2022-10-16T10:57:10;22.08;;;13.48;;
63189;SDS011;49286;44.460;26.114;2022-10-16T10:59:49;16.98;;;12.45;;
63189;SDS011;49286;44.460;26.114;2022-10-16T11:02:51;20.92;;;12.07;;
63189;SDS011;49286;44.460;26.114;2022-10-16T11:10:59;26.67;;;16.15;;
63189;SDS011;49286;44.460;26.114;2022-10-16T11:16:06;18.42;;;14.65;;
63189;SDS011;49286;44.460;26.114;2022-10-16T11:19:03;21.65;;;12.70;;
63189;SDS011;49286;44.460;26.114;2022-10-16T11:21:46;16.88;;;11.65;;
63189;SDS011;49286;44.460;26.114;2022-10-16T11:24:23;13.60;;;11.02;;
63189;SDS011;49286;44.460;26.114;2022-10-16T11:27:02;17.42;;;13.15;;
63189;SDS011;49286;44.460;26.114;2022-10-16T11:29:32;21.92;;;12.02;;
63189;SDS011;49286;44.460;26.114;2022-10-16T11:32:01;18.60;;;11.52;;
63189;SDS011;49286;44.460;26.114;2022-10-16T11:34:45;19.67;;;11.73;;
63189;SDS011;49286;44.460;26.114;2022-10-16T11:37:20;13.88;;;11.68;;
63189;SDS011;49286;44.460;26.114;2022-10-16T11:39:50;16.63;;;13.10;;
63189;SDS011;49286;44.460;26.114;2022-10-16T11:42:26;16.05;;;10.57;;
63189;SDS011;49286;44.460;26.114;2022-10-16T11:45:23;14.90;;;10.05;;
63189;SDS011;49286;44.460;26.114;2022-10-16T11:48:15;18.08;;;11.65;;
63189;SDS011;49286;44.460;26.114;2022-10-16T11:56:04;18.23;;;11.73;;
63189;SDS011;49286;44.460;26.114;2022-10-16T12:07:01;14.05;;;9.85;;
63189;SDS011;49286;44.460;26.114;2022-10-16T12:09:32;13.50;;;9.82;;
63189;SDS011;49286;44.460;26.114;2022-10-16T12:12:01;13.27;;;9.63;;
63189;SDS011;49286;44.460;26.114;2022-10-16T12:17:22;11.60;;;9.15;;
63189;SDS011;49286;44.460;26.114;2022-10-16T12:22:40;13.55;;;10.38;;
63189;SDS011;49286;44.460;26.114;2022-10-16T12:25:26;13.55;;;11.20;;
63189;SDS011;49286;44.460;26.114;2022-10-16T12:28:06;13.02;;;9.93;;
63189;SDS011;49286;44.460;26.114;2022-10-16T12:30:51;18.10;;;9.63;;
63189;SDS011;49286;44.460;26.114;2022-10-16T12:35:51;27.25;;;10.57;;
63189;SDS011;49286;44.460;26.114;2022-10-16T12:38:33;21.85;;;10.43;;
63189;SDS011;49286;44.460;26.114;2022-10-16T12:48:35;16.27;;;9.55;;
63189;SDS011;49286;44.460;26.114;2022-10-16T12:51:12;19.08;;;9.15;;
63189;SDS011;49286;44.460;26.114;2022-10-16T12:53:59;15.73;;;9.48;;
63189;SDS011;49286;44.460;26.114;2022-10-16T12:56:32;11.70;;;8.38;;
63189;SDS011;49286;44.460;26.114;2022-10-16T13:02:25;11.73;;;7.22;;
63189;SDS011;49286;44.460;26.114;2022-10-16T13:10:59;12.45;;;8.30;;
63189;SDS011;49286;44.460;26.114;2022-10-16T13:30:30;12.85;;;8.88;;
63189;SDS011;49286;44.460;26.114;2022-10-16T13:35:48;11.55;;;8.27;;
63189;SDS011;49286;44.460;26.114;2022-10-16T13:38:20;18.33;;;8.25;;
63189;SDS011;49286;44.460;26.114;2022-10-16T13:43:31;13.05;;;7.15;;
63189;SDS011;49286;44.460;26.114;2022-10-16T13:46:23;20.70;;;8.02;;
63189;SDS011;49286;44.460;26.114;2022-10-16T13:48:59;11.57;;;8.40;;
63189;SDS011;49286;44.460;26.114;2022-10-16T13:51:30;12.00;;;7.90;;
63189;SDS011;49286;44.460;26.114;2022-10-16T13:53:56;13.48;;;8.02;;
63189;SDS011;49286;44.460;26.114;2022-10-16T13:56:22;10.82;;;7.35;;
63189;SDS011;49286;44.460;26.114;2022-10-16T13:58:59;9.48;;;7.13;;
63189;SDS011;49286;44.460;26.114;2022-10-16T14:01:40;13.02;;;8.23;;
63189;SDS011;49286;44.460;26.114;2022-10-16T14:04:09;10.93;;;7.03;;
63189;SDS011;49286;44.460;26.114;2022-10-16T14:06:36;12.38;;;7.03;;
63189;SDS011;49286;44.460;26.114;2022-10-16T14:09:07;10.38;;;6.68;;
63189;SDS011;49286;44.460;26.114;2022-10-16T14:12:01;10.95;;;7.70;;
63189;SDS011;49286;44.460;26.114;2022-10-16T14:14:27;13.55;;;6.85;;
63189;SDS011;49286;44.460;26.114;2022-10-16T14:17:00;13.43;;;7.80;;
63189;SDS011;49286;44.460;26.114;2022-10-16T14:19:28;12.48;;;6.63;;
63189;SDS011;49286;44.460;26.114;2022-10-16T14:21:55;16.70;;;7.60;;
63189;SDS011;49286;44.460;26.114;2022-10-16T14:24:31;11.52;;;6.85;;
63189;SDS011;49286;44.460;26.114;2022-10-16T14:26:59;9.95;;;5.95;;
63189;SDS011;49286;44.460;26.114;2022-10-16T14:29:25;21.52;;;6.97;;
63189;SDS011;49286;44.460;26.114;2022-10-16T14:31:59;14.13;;;6.40;;
63189;SDS011;49286;44.460;26.114;2022-10-16T14:34:29;9.15;;;7.53;;
63189;SDS011;49286;44.460;26.114;2022-10-16T14:36:58;10.60;;;7.53;;
63189;SDS011;49286;44.460;26.114;2022-10-16T14:40:02;11.63;;;7.18;;
63189;SDS011;49286;44.460;26.114;2022-10-16T14:42:28;14.00;;;8.57;;
63189;SDS011;49286;44.460;26.114;2022-10-16T14:44:55;14.07;;;7.53;;
63189;SDS011;49286;44.460;26.114;2022-10-16T14:47:22;10.52;;;6.55;;
63189;SDS011;49286;44.460;26.114;2022-10-16T14:49:51;13.65;;;6.63;;
63189;SDS011;49286;44.460;26.114;2022-10-16T14:52:20;10.77;;;6.28;;
63189;SDS011;49286;44.460;26.114;2022-10-16T14:54:52;20.75;;;7.78;;
63189;SDS011;49286;44.460;26.114;2022-10-16T14:57:22;18.15;;;7.05;;
63189;SDS011;49286;44.460;26.114;2022-10-16T14:59:51;16.23;;;8.35;;
63189;SDS011;49286;44.460;26.114;2022-10-16T15:04:50;11.75;;;8.63;;
63189;SDS011;49286;44.460;26.114;2022-10-16T15:07:16;12.63;;;8.13;;
63189;SDS011;49286;44.460;26.114;2022-10-16T15:09:41;12.90;;;7.53;;
63189;SDS011;49286;44.460;26.114;2022-10-16T15:12:07;20.70;;;7.68;;
63189;SDS011;49286;44.460;26.114;2022-10-16T15:14:32;16.75;;;9.20;;
63189;SDS011;49286;44.460;26.114;2022-10-16T15:16:58;37.65;;;10.43;;
63189;SDS011;49286;44.460;26.114;2022-10-16T15:19:23;14.05;;;11.80;;
63189;SDS011;49286;44.460;26.114;2022-10-16T15:21:49;17.77;;;10.80;;
63189;SDS011;49286;44.460;26.114;2022-10-16T15:24:14;15.52;;;10.45;;
63189;SDS011;49286;44.460;26.114;2022-10-16T15:26:40;15.63;;;11.43;;
63189;SDS011;49286;44.460;26.114;2022-10-16T15:29:06;25.55;;;12.10;;
63189;SDS011;49286;44.460;26.114;2022-10-16T15:31:32;26.63;;;12.95;;
63189;SDS011;49286;44.460;26.114;2022-10-16T15:33:58;25.05;;;11.10;;
63189;SDS011;49286;44.460;26.114;2022-10-16T15:36:29;21.48;;;10.55;;
63189;SDS011;49286;44.460;26.114;2022-10-16T15:39:01;21.67;;;11.32;;
63189;SDS011;49286;44.460;26.114;2022-10-16T15:41:47;22.38;;;12.75;;
63189;SDS011;49286;44.460;26.114;2022-10-16T15:44:22;20.38;;;12.18;;
63189;SDS011;49286;44.460;26.114;2022-10-16T15:46:55;16.15;;;10.48;;
63189;SDS011;49286;44.460;26.114;2022-10-16T15:49:21;22.52;;;12.13;;
63189;SDS011;49286;44.460;26.114;2022-10-16T15:51:47;16.85;;;10.73;;
63189;SDS011;49286;44.460;26.114;2022-10-16T15:54:12;19.25;;;12.93;;
63189;SDS011;49286;44.460;26.114;2022-10-16T15:56:38;19.40;;;12.90;;
63189;SDS011;49286;44.460;26.114;2022-10-16T15:59:03;23.35;;;12.80;;
63189;SDS011;49286;44.460;26.114;2022-10-16T16:01:33;21.15;;;15.63;;
63189;SDS011;49286;44.460;26.114;2022-10-16T16:03:59;23.27;;;13.45;;
63189;SDS011;49286;44.460;26.114;2022-10-16T16:06:25;15.65;;;11.65;;
63189;SDS011;49286;44.460;26.114;2022-10-16T16:08:50;20.05;;;13.15;;
63189;SDS011;49286;44.460;26.114;2022-10-16T16:11:17;18.77;;;13.07;;
63189;SDS011;49286;44.460;26.114;2022-10-16T16:13:43;25.00;;;13.55;;
63189;SDS011;49286;44.460;26.114;2022-10-16T16:16:13;16.63;;;13.18;;
63189;SDS011;49286;44.460;26.114;2022-10-16T16:18:40;32.63;;;15.45;;
63189;SDS011;49286;44.460;26.114;2022-10-16T16:21:06;22.23;;;15.38;;
63189;SDS011;49286;44.460;26.114;2022-10-16T16:23:31;25.63;;;14.95;;
63189;SDS011;49286;44.460;26.114;2022-10-16T16:28:38;24.45;;;14.20;;
63189;SDS011;49286;44.460;26.114;2022-10-16T16:31:04;19.55;;;14.10;;
63189;SDS011;49286;44.460;26.114;2022-10-16T16:33:30;20.65;;;13.93;;
63189;SDS011;49286;44.460;26.114;2022-10-16T16:35:57;22.02;;;11.68;;
63189;SDS011;49286;44.460;26.114;2022-10-16T16:38:23;18.88;;;14.35;;
63189;SDS011;49286;44.460;26.114;2022-10-16T16:40:49;24.52;;;13.32;;
63189;SDS011;49286;44.460;26.114;2022-10-16T16:43:14;27.10;;;14.32;;
63189;SDS011;49286;44.460;26.114;2022-10-16T16:45:40;31.30;;;14.15;;
63189;SDS011;49286;44.460;26.114;2022-10-16T16:48:05;39.42;;;15.15;;
63189;SDS011;49286;44.460;26.114;2022-10-16T16:50:34;23.77;;;14.00;;
63189;SDS011;49286;44.460;26.114;2022-10-16T16:53:01;22.45;;;13.90;;
63189;SDS011;49286;44.460;26.114;2022-10-16T16:55:26;29.13;;;14.63;;